Time;durP1;ratioP1;P1;durP2;ratioP2;P2;SDS_P1;SDS_P2;PMS_P1;PMS_P2;Temp;Humidity;BMP_temperature;BMP_pressure;BME280_temperature;BME280_humidity;BME280_pressure;Samples;Min_cycle;Max_cycle;Signal;HPM_P1;HPM_P2
2023/04/18 00:01:39;;;;;;;12.10;10.80;;;;;;;;;;5035535;28;20577;-78
2023/04/18 00:04:05;;;;;;;12.63;10.77;;;;;;;;;;5052675;28;20420;-78
2023/04/18 00:06:31;;;;;;;12.15;10.85;;;;;;;;;;5048682;28;20405;-78
2023/04/18 00:08:57;;;;;;;12.40;11.02;;;;;;;;;;5045485;28;20428;-78
2023/04/18 00:11:23;;;;;;;14.57;11.05;;;;;;;;;;5052077;28;20422;-78
2023/04/18 00:13:49;;;;;;;12.32;10.98;;;;;;;;;;5051779;28;20412;-78
2023/04/18 00:16:15;;;;;;;13.82;10.88;;;;;;;;;;5034307;28;20423;-78
2023/04/18 00:18:41;;;;;;;12.60;10.88;;;;;;;;;;5030959;28;20461;-86
2023/04/18 00:21:07;;;;;;;12.15;10.80;;;;;;;;;;5049859;28;20481;-86
2023/04/18 00:23:34;;;;;;;12.73;10.67;;;;;;;;;;5028159;28;20457;-86
2023/04/18 00:26:00;;;;;;;12.80;11.10;;;;;;;;;;5052762;28;20446;-87
2023/04/18 00:28:26;;;;;;;11.57;10.38;;;;;;;;;;5050010;28;20472;-86
2023/04/18 00:30:53;;;;;;;14.93;10.88;;;;;;;;;;5051750;28;20503;-86
2023/04/18 00:33:19;;;;;;;11.90;10.70;;;;;;;;;;5034356;28;20427;-87
2023/04/18 00:35:45;;;;;;;14.35;11.02;;;;;;;;;;5051692;28;20423;-80
2023/04/18 00:38:11;;;;;;;11.35;10.00;;;;;;;;;;5051755;28;20499;-80
2023/04/18 00:40:37;;;;;;;12.18;10.90;;;;;;;;;;5051437;28;20432;-80
2023/04/18 00:43:03;;;;;;;13.32;10.52;;;;;;;;;;5052370;28;20424;-80
2023/04/18 00:45:29;;;;;;;12.20;10.93;;;;;;;;;;5031902;28;20450;-80
2023/04/18 00:47:56;;;;;;;12.10;10.90;;;;;;;;;;5043626;28;20431;-80
2023/04/18 00:50:22;;;;;;;13.60;10.90;;;;;;;;;;5035036;28;20442;-78
2023/04/18 00:52:48;;;;;;;12.30;11.00;;;;;;;;;;5023776;28;20426;-78
2023/04/18 00:55:15;;;;;;;12.25;10.68;;;;;;;;;;5045780;28;20437;-78
2023/04/18 00:57:41;;;;;;;13.25;10.70;;;;;;;;;;5025728;28;20439;-78
2023/04/18 01:00:08;;;;;;;13.65;11.25;;;;;;;;;;5049937;28;20461;-78
2023/04/18 01:02:34;;;;;;;12.93;11.32;;;;;;;;;;5048697;28;20420;-79
2023/04/18 01:05:01;;;;;;;13.90;10.60;;;;;;;;;;5047535;28;20419;-78
2023/04/18 01:07:29;;;;;;;12.70;10.80;;;;;;;;;;5048942;28;20487;-80
2023/04/18 01:09:55;;;;;;;13.65;10.90;;;;;;;;;;5035298;28;20423;-86
2023/04/18 01:12:21;;;;;;;11.75;10.60;;;;;;;;;;5051257;28;20412;-86
2023/04/18 01:14:47;;;;;;;11.97;10.67;;;;;;;;;;5051450;28;20428;-86
2023/04/18 01:17:13;;;;;;;12.15;10.95;;;;;;;;;;5025047;28;20443;-86
2023/04/18 01:19:39;;;;;;;12.82;10.55;;;;;;;;;;5034333;28;20423;-86
2023/04/18 01:22:06;;;;;;;12.00;10.63;;;;;;;;;;5033343;28;20424;-86
2023/04/18 01:24:32;;;;;;;11.63;10.43;;;;;;;;;;5051740;28;20424;-78
2023/04/18 01:26:58;;;;;;;11.95;10.70;;;;;;;;;;5051597;28;20403;-87
2023/04/18 01:29:25;;;;;;;13.82;10.98;;;;;;;;;;5045417;28;20421;-86
2023/04/18 01:31:51;;;;;;;12.38;10.70;;;;;;;;;;5037147;28;20427;-87
2023/04/18 01:34:20;;;;;;;12.23;10.90;;;;;;;;;;5054243;28;20428;-85
2023/04/18 01:36:46;;;;;;;11.88;10.50;;;;;;;;;;5054237;28;20436;-87
2023/04/18 01:39:13;;;;;;;12.18;10.90;;;;;;;;;;5054047;28;20415;-86
2023/04/18 01:41:40;;;;;;;12.27;10.88;;;;;;;;;;5053917;28;20517;-80
2023/04/18 01:44:06;;;;;;;12.23;10.50;;;;;;;;;;5054223;28;20419;-80
2023/04/18 01:46:33;;;;;;;12.88;10.80;;;;;;;;;;5052871;28;20492;-80
2023/04/18 01:48:59;;;;;;;11.88;10.45;;;;;;;;;;5056817;28;20421;-81
2023/04/18 01:51:26;;;;;;;13.15;11.05;;;;;;;;;;5057496;28;20415;-80
2023/04/18 01:53:52;;;;;;;12.80;10.85;;;;;;;;;;5058245;28;20442;-80
2023/04/18 01:56:18;;;;;;;12.32;11.02;;;;;;;;;;5053833;28;20470;-80
2023/04/18 01:58:44;;;;;;;12.02;10.82;;;;;;;;;;5057896;28;20433;-86
2023/04/18 02:01:10;;;;;;;12.48;11.18;;;;;;;;;;5058405;28;20403;-80
2023/04/18 02:03:36;;;;;;;12.18;10.68;;;;;;;;;;5051464;28;20475;-80
2023/04/18 02:06:03;;;;;;;11.63;10.47;;;;;;;;;;5075232;28;20455;-80
2023/04/18 02:08:31;;;;;;;12.32;10.75;;;;;;;;;;5069960;28;20427;-86
2023/04/18 02:10:57;;;;;;;12.32;11.00;;;;;;;;;;5068561;28;20418;-86
2023/04/18 02:13:23;;;;;;;14.13;10.73;;;;;;;;;;5037421;28;20562;-78
2023/04/18 02:15:50;;;;;;;12.02;10.82;;;;;;;;;;5038312;28;20415;-80
2023/04/18 02:18:17;;;;;;;11.85;10.65;;;;;;;;;;5038073;28;20434;-80
2023/04/18 02:20:43;;;;;;;12.70;11.18;;;;;;;;;;5040761;28;20427;-80
2023/04/18 02:23:10;;;;;;;11.85;10.65;;;;;;;;;;5056489;28;20426;-80
2023/04/18 02:25:36;;;;;;;12.27;10.98;;;;;;;;;;5040854;28;20426;-80
2023/04/18 02:28:02;;;;;;;12.98;11.05;;;;;;;;;;5040685;28;20437;-80
2023/04/18 02:30:28;;;;;;;12.65;11.45;;;;;;;;;;5074634;28;20433;-86
2023/04/18 02:32:57;;;;;;;12.50;11.20;;;;;;;;;;5056997;28;20422;-87
2023/04/18 02:35:24;;;;;;;14.45;11.32;;;;;;;;;;5074503;28;20414;-86
2023/04/18 02:37:50;;;;;;;12.57;11.25;;;;;;;;;;5057234;28;20438;-87
2023/04/18 02:40:16;;;;;;;12.67;11.37;;;;;;;;;;5074324;28;20422;-87
2023/04/18 02:42:42;;;;;;;13.75;11.30;;;;;;;;;;5074100;28;20425;-86
2023/04/18 02:45:08;;;;;;;12.82;11.32;;;;;;;;;;5040607;28;20406;-85
2023/04/18 02:47:34;;;;;;;12.45;11.15;;;;;;;;;;5039729;28;20430;-87
2023/04/18 02:50:00;;;;;;;12.27;11.00;;;;;;;;;;5056286;28;20445;-87
2023/04/18 02:52:26;;;;;;;15.88;11.27;;;;;;;;;;5039419;28;20421;-87
2023/04/18 02:54:52;;;;;;;14.23;11.20;;;;;;;;;;5050102;28;20441;-86
2023/04/18 02:57:19;;;;;;;13.88;11.60;;;;;;;;;;5056867;28;20579;-86
2023/04/18 02:59:45;;;;;;;12.27;11.05;;;;;;;;;;5040578;28;20402;-80
2023/04/18 03:02:11;;;;;;;14.90;11.50;;;;;;;;;;5045339;28;20519;-80
2023/04/18 03:04:37;;;;;;;13.20;11.80;;;;;;;;;;5039791;28;20472;-86
2023/04/18 03:07:03;;;;;;;13.45;12.05;;;;;;;;;;5054679;28;20465;-86
2023/04/18 03:09:29;;;;;;;13.10;11.57;;;;;;;;;;5055662;28;20426;-86
2023/04/18 03:11:55;;;;;;;12.57;11.27;;;;;;;;;;5039845;28;20472;-87
2023/04/18 03:14:21;;;;;;;14.67;11.57;;;;;;;;;;5035332;28;20515;-87
2023/04/18 03:16:47;;;;;;;12.73;11.40;;;;;;;;;;5038961;28;20422;-86
2023/04/18 03:19:13;;;;;;;13.27;11.60;;;;;;;;;;5054226;28;20419;-86
2023/04/18 03:21:39;;;;;;;13.63;11.57;;;;;;;;;;5056195;28;20430;-87
2023/04/18 03:24:05;;;;;;;13.55;11.95;;;;;;;;;;5043630;28;20428;-86
2023/04/18 03:26:31;;;;;;;13.45;11.95;;;;;;;;;;5069352;28;20436;-86
2023/04/18 03:28:57;;;;;;;13.23;11.50;;;;;;;;;;5056301;28;20410;-87
2023/04/18 03:31:23;;;;;;;13.07;11.70;;;;;;;;;;5039295;28;20410;-86
2023/04/18 03:33:50;;;;;;;16.00;12.30;;;;;;;;;;5056608;28;20422;-87
2023/04/18 03:36:17;;;;;;;13.38;12.05;;;;;;;;;;5035831;28;20426;-86
2023/04/18 03:38:43;;;;;;;13.63;12.30;;;;;;;;;;5047541;28;20502;-78
2023/04/18 03:41:10;;;;;;;13.25;11.85;;;;;;;;;;5072733;28;20504;-78
2023/04/18 03:43:36;;;;;;;14.05;12.55;;;;;;;;;;5039830;28;20418;-78
2023/04/18 03:46:02;;;;;;;13.43;12.02;;;;;;;;;;5055468;28;20418;-78
2023/04/18 03:48:28;;;;;;;12.82;11.50;;;;;;;;;;5043198;28;20435;-77
2023/04/18 03:50:54;;;;;;;14.55;11.88;;;;;;;;;;5035901;28;20518;-78
2023/04/18 03:53:20;;;;;;;14.80;11.93;;;;;;;;;;5057076;28;20478;-84
2023/04/18 03:55:46;;;;;;;14.52;13.00;;;;;;;;;;5049231;28;20427;-87
2023/04/18 03:58:12;;;;;;;13.70;12.13;;;;;;;;;;5029265;28;20447;-87
2023/04/18 04:00:39;;;;;;;13.80;12.30;;;;;;;;;;5071601;28;20418;-87
2023/04/18 04:03:05;;;;;;;14.33;12.70;;;;;;;;;;5054973;28;20414;-86
2023/04/18 04:05:31;;;;;;;13.48;12.07;;;;;;;;;;5073313;28;20422;-87
2023/04/18 04:07:57;;;;;;;14.70;12.57;;;;;;;;;;5054730;28;20433;-87
2023/04/18 04:10:23;;;;;;;13.88;12.10;;;;;;;;;;5054796;28;20419;-86
2023/04/18 04:12:50;;;;;;;13.52;12.13;;;;;;;;;;5072874;28;20494;-87
2023/04/18 04:15:16;;;;;;;13.95;12.45;;;;;;;;;;5055610;28;20407;-86
2023/04/18 04:17:42;;;;;;;14.30;12.23;;;;;;;;;;5055108;28;20430;-87
2023/04/18 04:20:08;;;;;;;13.70;12.30;;;;;;;;;;5051754;28;20464;-86
2023/04/18 04:22:35;;;;;;;13.57;12.18;;;;;;;;;;5035569;28;20452;-86
2023/04/18 04:25:01;;;;;;;13.38;12.02;;;;;;;;;;5046646;28;20407;-87
2023/04/18 04:27:27;;;;;;;13.40;12.00;;;;;;;;;;5037719;28;20502;-78
2023/04/18 04:29:53;;;;;;;13.32;12.02;;;;;;;;;;5034676;28;20451;-78
2023/04/18 04:32:20;;;;;;;13.32;11.93;;;;;;;;;;5037754;28;20429;-78
2023/04/18 04:34:46;;;;;;;14.23;12.73;;;;;;;;;;5052189;28;20432;-78
2023/04/18 04:37:18;;;;;;;13.55;12.25;;;;;;;;;;5055197;28;20435;-78
2023/04/18 04:39:45;;;;;;;13.80;11.73;;;;;;;;;;5053044;28;20416;-78
2023/04/18 04:42:11;;;;;;;13.95;12.00;;;;;;;;;;5034456;28;20440;-78
2023/04/18 04:44:37;;;;;;;13.88;12.48;;;;;;;;;;5056048;28;20445;-87
2023/04/18 04:47:03;;;;;;;13.73;12.20;;;;;;;;;;5051870;28;20412;-87
2023/04/18 04:49:30;;;;;;;15.13;12.90;;;;;;;;;;5053665;28;20433;-86
2023/04/18 04:51:56;;;;;;;13.82;12.43;;;;;;;;;;5055521;28;20410;-87
2023/04/18 04:54:22;;;;;;;13.82;12.43;;;;;;;;;;5037857;28;20640;-87
2023/04/18 04:56:48;;;;;;;13.20;11.90;;;;;;;;;;5038441;28;20540;-87
2023/04/18 04:59:14;;;;;;;13.82;12.32;;;;;;;;;;5035419;28;20409;-87
2023/04/18 05:01:40;;;;;;;14.40;12.20;;;;;;;;;;5046187;28;20472;-80
2023/04/18 05:04:06;;;;;;;15.27;12.90;;;;;;;;;;5046693;28;20422;-80
2023/04/18 05:06:33;;;;;;;16.02;13.05;;;;;;;;;;5057174;28;20420;-87
2023/04/18 05:08:59;;;;;;;14.30;12.80;;;;;;;;;;5076525;28;20402;-87
2023/04/18 05:11:26;;;;;;;15.03;13.43;;;;;;;;;;5042269;28;20415;-87
2023/04/18 05:13:52;;;;;;;14.82;13.23;;;;;;;;;;5077320;28;20437;-87
2023/04/18 05:16:18;;;;;;;14.47;13.00;;;;;;;;;;5059115;28;20402;-87
2023/04/18 05:18:44;;;;;;;14.63;13.02;;;;;;;;;;5043213;28;20436;-85
2023/04/18 05:21:10;;;;;;;14.57;13.07;;;;;;;;;;5083930;28;20404;-85
2023/04/18 05:23:36;;;;;;;15.35;13.63;;;;;;;;;;5079368;28;20443;-86
2023/04/18 05:26:03;;;;;;;16.42;13.30;;;;;;;;;;5050398;28;20422;-87
2023/04/18 05:28:29;;;;;;;13.87;12.47;;;;;;;;;;5075807;28;20409;-86
2023/04/18 05:31:01;;;;;;;14.50;12.88;;;;;;;;;;5058240;28;20418;-87
2023/04/18 05:33:30;;;;;;;14.80;13.25;;;;;;;;;;5061631;28;20471;-87
2023/04/18 05:35:57;;;;;;;15.05;13.02;;;;;;;;;;5041728;28;20426;-85
2023/04/18 05:38:23;;;;;;;14.15;12.27;;;;;;;;;;5044939;28;20438;-87
2023/04/18 05:40:50;;;;;;;14.50;13.00;;;;;;;;;;5054680;28;20400;-84
2023/04/18 05:45:44;;;;;;;14.57;13.07;;;;;;;;;;5059930;28;20550;-81
2023/04/18 05:48:10;;;;;;;13.83;12.53;;;;;;;;;;5021990;28;20429;-82
2023/04/18 05:50:40;;;;;;;13.82;12.52;;;;;;;;;;5167410;23;20537;-94
2023/04/18 05:59:27;;;;;;;;;;;;;;;;;;;;;
2023/04/18 06:02:12;;;;;;;13.82;12.43;;;;;;;;;;5017289;28;20447;-93
2023/04/18 06:04:48;;;;;;;15.68;12.55;;;;;;;;;;5057996;28;20402;-93
2023/04/18 06:10:22;;;;;;;14.27;12.50;;;;;;;;;;5059881;28;20395;-90
2023/04/18 06:21:28;;;;;;;13.82;12.43;;;;;;;;;;5089560;28;20470;-83
2023/04/18 06:23:55;;;;;;;13.57;12.27;;;;;;;;;;5057253;28;20430;-83
2023/04/18 06:26:21;;;;;;;13.52;12.13;;;;;;;;;;5062557;28;20425;-83
2023/04/18 06:28:47;;;;;;;13.07;11.77;;;;;;;;;;5077556;28;20500;-83
2023/04/18 06:31:13;;;;;;;12.75;11.52;;;;;;;;;;5059819;28;20462;-83
2023/04/18 06:33:39;;;;;;;12.77;11.33;;;;;;;;;;5077400;28;20400;-79
2023/04/18 06:36:06;;;;;;;12.50;11.20;;;;;;;;;;5077032;28;20407;-79
2023/04/18 06:38:32;;;;;;;12.43;11.13;;;;;;;;;;5078486;28;20432;-79
2023/04/18 06:40:58;;;;;;;12.60;11.40;;;;;;;;;;5100012;28;20508;-78
2023/04/18 06:43:24;;;;;;;12.48;11.18;;;;;;;;;;5066124;28;20434;-79
2023/04/18 06:45:50;;;;;;;12.02;10.82;;;;;;;;;;5057856;28;20489;-79
2023/04/18 06:48:16;;;;;;;11.55;10.48;;;;;;;;;;5094267;28;20409;-79
2023/04/18 06:50:42;;;;;;;11.55;10.45;;;;;;;;;;5052340;28;20422;-83
2023/04/18 06:53:08;;;;;;;12.13;10.77;;;;;;;;;;5069417;28;20421;-83
2023/04/18 06:55:35;;;;;;;10.95;9.95;;;;;;;;;;5060357;28;20408;-83
2023/04/18 06:58:01;;;;;;;11.07;9.97;;;;;;;;;;5053322;28;20421;-84
2023/04/18 07:00:27;;;;;;;10.90;9.80;;;;;;;;;;5060694;28;20432;-85
2023/04/18 07:02:53;;;;;;;11.40;10.20;;;;;;;;;;5069664;28;20432;-85
2023/04/18 07:05:19;;;;;;;11.20;10.02;;;;;;;;;;5059673;28;20425;-84
2023/04/18 07:07:45;;;;;;;10.80;9.80;;;;;;;;;;5058747;28;20475;-84
2023/04/18 07:10:11;;;;;;;10.77;9.77;;;;;;;;;;5076270;28;20565;-84
2023/04/18 07:12:37;;;;;;;10.82;9.80;;;;;;;;;;5076246;28;20421;-84
2023/04/18 07:15:03;;;;;;;10.83;9.83;;;;;;;;;;5056119;28;20418;-84
2023/04/18 07:17:29;;;;;;;10.65;9.65;;;;;;;;;;5076089;28;20455;-84
2023/04/18 07:19:55;;;;;;;10.88;9.88;;;;;;;;;;5095744;28;20519;-84
2023/04/18 07:22:21;;;;;;;10.70;9.60;;;;;;;;;;5085107;28;20521;-83
2023/04/18 07:24:47;;;;;;;10.60;9.50;;;;;;;;;;5054558;28;20461;-83
2023/04/18 07:27:14;;;;;;;9.88;8.95;;;;;;;;;;5087731;28;20413;-84
2023/04/18 07:29:40;;;;;;;10.00;9.00;;;;;;;;;;5038793;28;20482;-83
2023/04/18 07:32:06;;;;;;;9.23;8.43;;;;;;;;;;5051374;28;20448;-81
2023/04/18 07:34:32;;;;;;;9.88;8.98;;;;;;;;;;5056450;28;20432;-82
2023/04/18 07:36:58;;;;;;;9.98;8.70;;;;;;;;;;5056928;28;20468;-83
2023/04/18 07:39:25;;;;;;;10.07;8.95;;;;;;;;;;5075595;28;20404;-80
2023/04/18 07:41:51;;;;;;;9.73;8.88;;;;;;;;;;5075721;28;20467;-83
2023/04/18 07:44:17;;;;;;;9.45;8.57;;;;;;;;;;5053940;28;20426;-82
2023/04/18 07:46:43;;;;;;;9.45;8.65;;;;;;;;;;5055144;28;20465;-82
2023/04/18 07:49:09;;;;;;;9.50;8.60;;;;;;;;;;5055641;28;20406;-82
2023/04/18 07:51:35;;;;;;;9.90;8.88;;;;;;;;;;5039272;28;20410;-83
2023/04/18 07:54:01;;;;;;;9.25;8.32;;;;;;;;;;5038751;28;20459;-84
2023/04/18 07:56:27;;;;;;;9.03;8.23;;;;;;;;;;5093485;28;20409;-81
2023/04/18 07:58:54;;;;;;;9.65;8.75;;;;;;;;;;5055316;28;20471;-81
2023/04/18 08:01:23;;;;;;;9.82;8.93;;;;;;;;;;5055343;28;20395;-81
2023/04/18 08:03:50;;;;;;;9.93;9.02;;;;;;;;;;5066294;28;20429;-81
2023/04/18 08:06:16;;;;;;;9.63;8.75;;;;;;;;;;5113807;28;20463;-81
2023/04/18 08:08:42;;;;;;;9.60;8.73;;;;;;;;;;5068377;28;20421;-81
2023/04/18 08:11:08;;;;;;;9.35;8.45;;;;;;;;;;5071800;28;20406;-81
2023/04/18 08:13:34;;;;;;;9.70;8.77;;;;;;;;;;5081747;28;20414;-80
2023/04/18 08:16:01;;;;;;;9.82;8.82;;;;;;;;;;5055226;28;20399;-80
2023/04/18 08:18:27;;;;;;;9.77;8.77;;;;;;;;;;5061884;28;20428;-81
2023/04/18 08:20:53;;;;;;;9.45;8.55;;;;;;;;;;5055418;28;20444;-80
2023/04/18 08:23:20;;;;;;;9.35;8.48;;;;;;;;;;5056599;28;20441;-80
2023/04/18 08:25:46;;;;;;;9.27;8.48;;;;;;;;;;5092883;28;20416;-80
2023/04/18 08:28:12;;;;;;;9.50;8.60;;;;;;;;;;5075528;28;20413;-80
2023/04/18 08:30:38;;;;;;;8.93;8.13;;;;;;;;;;5093166;28;20392;-79
2023/04/18 08:33:04;;;;;;;9.07;8.18;;;;;;;;;;5075364;28;20416;-80
2023/04/18 08:35:31;;;;;;;9.60;8.70;;;;;;;;;;5058862;28;20401;-79
2023/04/18 08:37:57;;;;;;;9.05;8.25;;;;;;;;;;5075382;28;20435;-81
2023/04/18 08:40:24;;;;;;;9.10;8.20;;;;;;;;;;5080150;28;20461;-79
2023/04/18 08:42:52;;;;;;;8.30;7.50;;;;;;;;;;5081638;28;20400;-80
2023/04/18 08:45:19;;;;;;;9.47;8.57;;;;;;;;;;5100043;28;20400;-83
2023/04/18 08:47:45;;;;;;;8.93;7.75;;;;;;;;;;5065596;28;20416;-85
2023/04/18 08:50:12;;;;;;;8.18;7.47;;;;;;;;;;5082347;28;20412;-84
2023/04/18 08:52:39;;;;;;;8.45;7.65;;;;;;;;;;5082261;28;20454;-84
2023/04/18 08:55:06;;;;;;;8.38;7.57;;;;;;;;;;5082488;28;20412;-83
2023/04/18 08:57:32;;;;;;;8.20;7.40;;;;;;;;;;5063593;28;20428;-84
2023/04/18 09:00:01;;;;;;;8.67;7.63;;;;;;;;;;5080060;28;20175;-82
2023/04/18 09:02:37;;;;;;;8.13;7.43;;;;;;;;;;5093437;28;20404;-83
2023/04/18 09:05:10;;;;;;;8.13;7.32;;;;;;;;;;5080052;28;20398;-82
2023/04/18 09:07:36;;;;;;;7.72;7.03;;;;;;;;;;5061637;28;20460;-85
2023/04/18 09:10:02;;;;;;;7.60;6.90;;;;;;;;;;5045714;28;20410;-84
2023/04/18 09:12:28;;;;;;;7.88;7.07;;;;;;;;;;5068859;28;20518;-83
2023/04/18 09:14:57;;;;;;;8.00;7.30;;;;;;;;;;5061594;28;20402;-84
2023/04/18 09:17:34;;;;;;;8.03;7.23;;;;;;;;;;5065990;28;20457;-83
2023/04/18 09:20:10;;;;;;;7.90;7.10;;;;;;;;;;5069990;28;20429;-83
2023/04/18 09:22:45;;;;;;;8.18;7.38;;;;;;;;;;5099882;28;20549;-82
2023/04/18 09:25:13;;;;;;;8.27;7.47;;;;;;;;;;5099475;28;20419;-86
2023/04/18 09:27:39;;;;;;;8.23;6.47;;;;;;;;;;5078299;28;20502;-84
2023/04/18 09:30:05;;;;;;;7.40;6.73;;;;;;;;;;5078826;28;20241;-85
2023/04/18 09:32:32;;;;;;;8.02;7.15;;;;;;;;;;5061865;28;20559;-84
2023/04/18 09:35:00;;;;;;;7.72;7.03;;;;;;;;;;5044981;28;20463;-84
2023/04/18 09:37:26;;;;;;;7.70;6.90;;;;;;;;;;5073391;28;20440;-84
2023/04/18 09:39:52;;;;;;;7.90;7.07;;;;;;;;;;5081125;28;20454;-83
2023/04/18 09:42:19;;;;;;;7.53;6.88;;;;;;;;;;5081396;28;20401;-83
2023/04/18 09:44:57;;;;;;;7.93;7.13;;;;;;;;;;5064600;28;20435;-85
2023/04/18 09:47:23;;;;;;;7.85;7.15;;;;;;;;;;5079710;28;20432;-83
2023/04/18 09:49:49;;;;;;;7.68;6.97;;;;;;;;;;5079985;28;20401;-84
2023/04/18 09:52:15;;;;;;;7.45;6.75;;;;;;;;;;5065034;28;20415;-81
2023/04/18 09:54:43;;;;;;;7.40;6.80;;;;;;;;;;5063318;28;20405;-80
2023/04/18 09:57:12;;;;;;;7.65;6.90;;;;;;;;;;5077147;28;20432;-80
2023/04/18 09:59:50;;;;;;;7.20;6.60;;;;;;;;;;5076307;28;20420;-81
2023/04/18 10:02:20;;;;;;;7.80;7.00;;;;;;;;;;5088321;28;20428;-80
2023/04/18 10:04:47;;;;;;;7.37;6.70;;;;;;;;;;5094968;28;20451;-80
2023/04/18 10:07:14;;;;;;;7.38;6.78;;;;;;;;;;5076273;28;20428;-82
2023/04/18 10:09:43;;;;;;;7.55;6.82;;;;;;;;;;5061749;28;20500;-80
2023/04/18 10:12:11;;;;;;;6.93;6.32;;;;;;;;;;5095822;28;20408;-85
2023/04/18 10:14:38;;;;;;;7.10;6.45;;;;;;;;;;5077728;28;20403;-85
2023/04/18 10:17:05;;;;;;;10.57;6.65;;;;;;;;;;5077992;28;20401;-86
2023/04/18 10:19:31;;;;;;;7.72;7.00;;;;;;;;;;5061213;28;20435;-85
2023/04/18 10:21:58;;;;;;;7.60;6.80;;;;;;;;;;5078754;28;20441;-85
2023/04/18 10:24:43;;;;;;;7.35;6.65;;;;;;;;;;5077465;28;20476;-86
2023/04/18 10:27:09;;;;;;;6.90;6.30;;;;;;;;;;5074315;28;20406;-85
2023/04/18 10:29:50;;;;;;;7.15;6.45;;;;;;;;;;5077391;28;20424;-85
2023/04/18 10:32:19;;;;;;;7.78;6.97;;;;;;;;;;5074615;28;20495;-85
2023/04/18 10:34:46;;;;;;;7.88;7.18;;;;;;;;;;5077353;28;20450;-85
2023/04/18 10:37:12;;;;;;;8.63;7.50;;;;;;;;;;5060794;28;20505;-85
2023/04/18 10:39:54;;;;;;;8.17;7.47;;;;;;;;;;5076935;28;20418;-86
2023/04/18 10:42:40;;;;;;;8.70;7.90;;;;;;;;;;5095326;28;20396;-81
2023/04/18 10:45:23;;;;;;;8.60;7.80;;;;;;;;;;5077049;28;20404;-81
2023/04/18 10:47:49;;;;;;;8.60;7.70;;;;;;;;;;5077348;28;20451;-80
2023/04/18 10:50:16;;;;;;;8.60;7.80;;;;;;;;;;5076944;28;20401;-80
2023/04/18 10:52:42;;;;;;;8.43;7.72;;;;;;;;;;5077469;28;20411;-80
2023/04/18 10:55:17;;;;;;;9.23;8.30;;;;;;;;;;5077527;28;20412;-80
2023/04/18 10:57:44;;;;;;;8.30;7.60;;;;;;;;;;5094777;28;20423;-81
2023/04/18 11:00:12;;;;;;;8.30;7.60;;;;;;;;;;5075333;28;20456;-81
2023/04/18 11:02:39;;;;;;;8.50;7.70;;;;;;;;;;5075318;28;20439;-82
2023/04/18 11:05:06;;;;;;;8.60;7.80;;;;;;;;;;5076483;28;20400;-82
2023/04/18 11:07:36;;;;;;;8.85;8.05;;;;;;;;;;5093814;28;20474;-81
2023/04/18 11:10:03;;;;;;;9.02;8.15;;;;;;;;;;5096860;28;20399;-81
2023/04/18 11:12:32;;;;;;;9.38;8.00;;;;;;;;;;5071840;28;20428;-82
2023/04/18 11:15:02;;;;;;;9.15;8.00;;;;;;;;;;5072544;28;20411;-83
2023/04/18 11:17:34;;;;;;;10.77;8.45;;;;;;;;;;5056107;28;20438;-84
2023/04/18 11:20:00;;;;;;;9.13;8.37;;;;;;;;;;5072200;28;20422;-83
2023/04/18 11:22:26;;;;;;;9.17;8.37;;;;;;;;;;5086091;28;20492;-83
2023/04/18 11:24:57;;;;;;;9.20;8.30;;;;;;;;;;5089422;28;20398;-83
2023/04/18 11:27:25;;;;;;;8.73;7.93;;;;;;;;;;5068939;28;20410;-82
2023/04/18 11:29:54;;;;;;;8.98;8.18;;;;;;;;;;5055333;28;20437;-83
2023/04/18 11:32:21;;;;;;;8.80;8.00;;;;;;;;;;5066299;28;20434;-84
2023/04/18 11:34:50;;;;;;;7.90;7.20;;;;;;;;;;5066361;28;20426;-85
2023/04/18 11:37:16;;;;;;;9.40;8.35;;;;;;;;;;5072357;28;20430;-83
2023/04/18 11:39:43;;;;;;;9.00;8.20;;;;;;;;;;5085211;28;20448;-83
2023/04/18 11:42:09;;;;;;;9.70;8.80;;;;;;;;;;5074006;28;20424;-83
2023/04/18 11:44:38;;;;;;;10.05;9.20;;;;;;;;;;5092495;28;20460;-83
2023/04/18 11:47:05;;;;;;;10.23;9.30;;;;;;;;;;5077318;28;20464;-84
2023/04/18 11:49:32;;;;;;;10.73;9.63;;;;;;;;;;5070733;28;20418;-83
2023/04/18 11:51:58;;;;;;;10.93;9.95;;;;;;;;;;5055653;28;20413;-85
2023/04/18 11:54:40;;;;;;;10.18;9.13;;;;;;;;;;5072231;28;20405;-86
2023/04/18 11:57:07;;;;;;;9.63;8.67;;;;;;;;;;5089081;28;20171;-85
2023/04/18 11:59:33;;;;;;;10.75;9.70;;;;;;;;;;5090730;28;20496;-86
2023/04/18 12:02:03;;;;;;;10.68;9.55;;;;;;;;;;5081169;28;20506;-81
2023/04/18 12:04:29;;;;;;;11.32;10.25;;;;;;;;;;5084742;28;20413;-81
2023/04/18 12:06:56;;;;;;;11.48;10.48;;;;;;;;;;5052425;28;20415;-84
2023/04/18 12:09:26;;;;;;;11.95;10.88;;;;;;;;;;5068828;28;20454;-84
2023/04/18 12:11:59;;;;;;;11.48;10.48;;;;;;;;;;5086573;28;20412;-84
2023/04/18 12:14:26;;;;;;;11.68;10.68;;;;;;;;;;5060536;28;20420;-84
2023/04/18 12:16:52;;;;;;;12.30;11.20;;;;;;;;;;5071436;28;20426;-87
2023/04/18 12:19:22;;;;;;;12.80;11.60;;;;;;;;;;5069621;28;20430;-84
2023/04/18 12:22:05;;;;;;;13.25;12.05;;;;;;;;;;5074773;28;20448;-86
2023/04/18 12:24:31;;;;;;;13.00;11.90;;;;;;;;;;5083589;28;20523;-81
2023/04/18 12:26:59;;;;;;;13.65;12.35;;;;;;;;;;5102591;22;20442;-85
2023/04/18 12:29:27;;;;;;;14.20;12.90;;;;;;;;;;5054218;28;20429;-85
2023/04/18 12:31:53;;;;;;;13.93;12.55;;;;;;;;;;5047929;28;20424;-85
2023/04/18 12:34:19;;;;;;;14.00;12.80;;;;;;;;;;5032471;28;20411;-86
2023/04/18 12:36:46;;;;;;;14.47;13.17;;;;;;;;;;5012495;28;20418;-86
2023/04/18 12:39:12;;;;;;;15.35;13.85;;;;;;;;;;5031864;28;20433;-85
2023/04/18 12:41:38;;;;;;;14.10;12.90;;;;;;;;;;5031728;28;20512;-85
2023/04/18 12:44:04;;;;;;;14.75;13.32;;;;;;;;;;5031856;28;20398;-85
2023/04/18 12:46:31;;;;;;;14.25;13.00;;;;;;;;;;5031662;28;20405;-85
2023/04/18 12:48:57;;;;;;;14.27;12.98;;;;;;;;;;5031975;28;20413;-85
2023/04/18 12:51:23;;;;;;;14.80;13.50;;;;;;;;;;5013929;28;20415;-86
2023/04/18 12:53:49;;;;;;;15.48;14.07;;;;;;;;;;5028955;28;20407;-86
2023/04/18 12:56:18;;;;;;;15.10;13.80;;;;;;;;;;5019811;28;20511;-85
2023/04/18 12:58:44;;;;;;;15.00;13.70;;;;;;;;;;5030369;28;20435;-85
2023/04/18 13:01:10;;;;;;;15.07;13.75;;;;;;;;;;5028809;28;20407;-85
2023/04/18 13:03:36;;;;;;;14.98;13.57;;;;;;;;;;5038464;28;20423;-85
2023/04/18 13:06:04;;;;;;;15.13;13.73;;;;;;;;;;5028646;28;20417;-86
2023/04/18 13:08:30;;;;;;;15.45;14.13;;;;;;;;;;5028595;28;20480;-85
2023/04/18 13:10:57;;;;;;;15.47;13.87;;;;;;;;;;5021963;28;20425;-85
2023/04/18 13:13:26;;;;;;;15.45;13.98;;;;;;;;;;5011946;28;20446;-85
2023/04/18 13:15:52;;;;;;;15.30;13.90;;;;;;;;;;5029950;28;20421;-86
2023/04/18 13:18:18;;;;;;;15.70;14.30;;;;;;;;;;5031057;28;20432;-86
2023/04/18 13:20:45;;;;;;;15.85;14.48;;;;;;;;;;5032570;28;20440;-85
2023/04/18 13:23:11;;;;;;;15.57;14.15;;;;;;;;;;5027106;28;20404;-86
2023/04/18 13:25:37;;;;;;;16.10;14.55;;;;;;;;;;5049731;28;20396;-85
2023/04/18 13:28:03;;;;;;;15.97;14.57;;;;;;;;;;5052622;28;20429;-86
2023/04/18 13:30:29;;;;;;;16.10;14.70;;;;;;;;;;5054496;28;20435;-86
2023/04/18 13:32:55;;;;;;;16.45;14.95;;;;;;;;;;5054817;28;20422;-86
2023/04/18 13:35:21;;;;;;;15.98;14.57;;;;;;;;;;5052314;28;20421;-86
2023/04/18 13:37:47;;;;;;;16.17;14.68;;;;;;;;;;5064112;28;20474;-85
2023/04/18 13:40:16;;;;;;;16.27;14.77;;;;;;;;;;5072507;28;20423;-86
2023/04/18 13:42:44;;;;;;;16.42;14.93;;;;;;;;;;5076701;28;20423;-86
2023/04/18 13:45:10;;;;;;;16.33;14.93;;;;;;;;;;5054501;28;20404;-86
2023/04/18 13:47:36;;;;;;;15.65;14.35;;;;;;;;;;5075368;28;20431;-85
2023/04/18 13:50:05;;;;;;;15.88;14.40;;;;;;;;;;5058582;28;20403;-86
2023/04/18 13:52:31;;;;;;;15.40;14.00;;;;;;;;;;5075188;28;20415;-86
2023/04/18 13:54:57;;;;;;;16.35;14.75;;;;;;;;;;5074415;28;20487;-86
2023/04/18 13:57:23;;;;;;;16.30;14.80;;;;;;;;;;5074134;28;20465;-85
2023/04/18 13:59:52;;;;;;;16.48;14.90;;;;;;;;;;5056938;28;20458;-85
2023/04/18 14:02:18;;;;;;;15.10;13.88;;;;;;;;;;5074558;28;20406;-85
2023/04/18 14:04:44;;;;;;;15.50;14.00;;;;;;;;;;5075068;28;20394;-85
2023/04/18 14:07:10;;;;;;;15.30;13.80;;;;;;;;;;5058654;28;20425;-86
2023/04/18 14:09:38;;;;;;;15.25;13.95;;;;;;;;;;5058352;28;20413;-85
2023/04/18 14:12:05;;;;;;;15.65;13.98;;;;;;;;;;5074685;28;20403;-85
2023/04/18 14:14:31;;;;;;;15.18;13.68;;;;;;;;;;5074717;28;20403;-86
2023/04/18 14:17:00;;;;;;;14.80;13.40;;;;;;;;;;5073862;28;20479;-86
2023/04/18 14:19:27;;;;;;;14.68;13.30;;;;;;;;;;5054599;28;20419;-85
2023/04/18 14:21:53;;;;;;;14.48;13.07;;;;;;;;;;5068118;28;20418;-85
2023/04/18 14:24:19;;;;;;;13.85;12.65;;;;;;;;;;5074846;28;20406;-86
2023/04/18 14:26:45;;;;;;;14.38;13.07;;;;;;;;;;5074062;28;20418;-85
2023/04/18 14:29:12;;;;;;;14.27;12.88;;;;;;;;;;5068764;28;20519;-86
2023/04/18 14:31:38;;;;;;;13.70;12.50;;;;;;;;;;5071851;28;20417;-85
2023/04/18 14:34:07;;;;;;;13.70;12.40;;;;;;;;;;5068376;28;20422;-85
2023/04/18 14:36:33;;;;;;;12.77;11.47;;;;;;;;;;5074973;28;20171;-86
2023/04/18 14:38:59;;;;;;;12.60;11.40;;;;;;;;;;5058615;28;20426;-85
2023/04/18 14:41:25;;;;;;;13.35;12.00;;;;;;;;;;5074149;28;20410;-85
2023/04/18 14:43:54;;;;;;;12.95;11.65;;;;;;;;;;5075078;28;20414;-85
2023/04/18 14:46:20;;;;;;;12.60;11.40;;;;;;;;;;5074052;28;20398;-85